createdAt,value
2022-08-07T00:00:40.397Z,21.3
2022-08-07T00:02:35.882Z,21.2
2022-08-07T00:02:45.411Z,21.2
2022-08-07T00:03:48.328Z,21.1
2022-08-07T00:04:50.425Z,21.1
2022-08-07T00:05:53.943Z,21.1
2022-08-07T00:06:55.405Z,21.1
2022-08-07T00:07:58.396Z,21.1
2022-08-07T00:08:59.467Z,21.1
2022-08-07T00:10:19.595Z,21.2
2022-08-07T00:11:03.408Z,21.2
2022-08-07T00:12:05.411Z,21.2
2022-08-07T00:13:09.800Z,21.1
2022-08-07T00:14:09.439Z,21.2
2022-08-07T00:15:11.486Z,21.2
2022-08-07T00:16:17.355Z,21.2
2022-08-07T00:17:15.428Z,21.2
2022-08-07T00:18:19.066Z,21.2
2022-08-07T00:19:21.284Z,21.2
2022-08-07T00:20:29.635Z,21.2
2022-08-07T00:21:55.264Z,21.2
2022-08-07T00:22:35.015Z,21.2
2022-08-07T00:23:28.544Z,21.2
2022-08-07T00:24:31.653Z,21.2
2022-08-07T00:25:37.367Z,21.2
2022-08-07T00:26:48.957Z,21.1
2022-08-07T00:27:52.098Z,21.1
2022-08-07T00:28:45.807Z,21
2022-08-07T00:29:40.438Z,20.9
2022-08-07T00:30:42.445Z,20.9
2022-08-07T00:31:44.924Z,21
2022-08-07T00:32:47.350Z,20.9
2022-08-07T00:33:49.454Z,20.9
2022-08-07T00:34:51.453Z,20.9
2022-08-07T00:35:53.462Z,20.8
2022-08-07T00:36:55.483Z,20.9
2022-08-07T00:37:57.483Z,20.9
2022-08-07T00:38:59.560Z,20.9
2022-08-07T00:40:01.551Z,20.9
2022-08-07T00:41:03.443Z,20.9
2022-08-07T00:42:05.604Z,20.9
2022-08-07T00:43:09.599Z,20.9
2022-08-07T00:44:09.467Z,20.8
2022-08-07T00:45:16.352Z,20.8
2022-08-07T00:46:14.250Z,20.8
2022-08-07T00:47:15.723Z,20.8
2022-08-07T00:48:17.540Z,20.8
2022-08-07T00:49:24.704Z,20.8
2022-08-07T00:50:43.958Z,20.8
2022-08-07T00:51:23.472Z,20.7
2022-08-07T00:52:25.581Z,20.7
2022-08-07T00:53:27.485Z,20.7
2022-08-07T00:54:29.489Z,20.7
2022-08-07T00:56:01.061Z,20.6
2022-08-07T00:56:33.846Z,20.6
2022-08-07T00:57:35.607Z,20.5
2022-08-07T00:58:37.529Z,20.5
2022-08-07T00:59:39.489Z,20.5
2022-08-07T01:00:51.404Z,20.5
2022-08-07T01:01:44.318Z,20.4
2022-08-07T01:02:45.521Z,20.4
2022-08-07T01:03:55.252Z,20.4
2022-08-07T01:04:49.518Z,20.4
2022-08-07T01:05:53.674Z,20.4
2022-08-07T01:06:54.548Z,20.4
2022-08-07T01:07:56.613Z,20.4
2022-08-07T01:09:00.869Z,20.3
2022-08-07T01:10:05.489Z,20.3
2022-08-07T01:12:04.291Z,20.3
2022-08-07T01:12:10.270Z,20.3
2022-08-07T01:13:06.566Z,20.3
2022-08-07T01:14:08.853Z,20.3
2022-08-07T01:15:11.739Z,20.3
2022-08-07T01:16:12.545Z,20.3
2022-08-07T01:17:14.540Z,20.3
2022-08-07T01:18:16.693Z,20.3
2022-08-07T01:19:19.619Z,20.3
2022-08-07T01:20:20.587Z,20.3
2022-08-07T01:21:24.408Z,20.2
2022-08-07T01:22:29.299Z,20.2
2022-08-07T01:23:34.752Z,20.2
2022-08-07T01:24:28.531Z,20.2
2022-08-07T01:25:40.764Z,20.2
2022-08-07T01:26:32.523Z,20.2
2022-08-07T01:27:34.853Z,20.2
2022-08-07T01:28:36.551Z,20.2
2022-08-07T01:29:39.086Z,20.1
2022-08-07T01:30:40.560Z,20.1
2022-08-07T01:31:46.122Z,20.1
2022-08-07T01:32:44.544Z,20.1
2022-08-07T01:33:53.914Z,20
2022-08-07T01:34:49.253Z,20
2022-08-07T01:35:52.974Z,20
2022-08-07T01:36:57.795Z,20
2022-08-07T01:37:54.585Z,20
2022-08-07T01:38:56.620Z,20
2022-08-07T01:39:58.615Z,20
2022-08-07T01:41:00.550Z,20
2022-08-07T01:42:07.819Z,19.9
2022-08-07T01:43:04.573Z,19.9
2022-08-07T01:44:06.613Z,19.9
2022-08-07T01:45:09.918Z,19.9
2022-08-07T01:46:12.227Z,19.8
2022-08-07T01:47:14.706Z,19.8
2022-08-07T01:48:18.661Z,19.8
2022-08-07T01:49:16.602Z,19.8
2022-08-07T01:50:22.868Z,19.8
2022-08-07T01:51:24.201Z,19.8
2022-08-07T01:52:22.574Z,19.7
2022-08-07T01:54:08.680Z,19.7
2022-08-07T01:54:32.744Z,19.7
2022-08-07T01:55:28.588Z,19.6
2022-08-07T01:56:30.577Z,19.6
2022-08-07T01:57:32.698Z,19.6
2022-08-07T01:58:34.690Z,19.6
2022-08-07T01:59:36.630Z,19.5
2022-08-07T02:00:38.759Z,19.5
2022-08-07T02:01:59.520Z,19.5
2022-08-07T02:03:12.885Z,19.5
2022-08-07T02:03:49.132Z,19.5
2022-08-07T02:04:52.461Z,19.5
2022-08-07T02:05:59.505Z,19.5
2022-08-07T02:06:50.602Z,19.5
2022-08-07T02:07:52.877Z,19.4
2022-08-07T02:08:54.622Z,19.4
2022-08-07T02:09:58.625Z,19.4
2022-08-07T02:10:58.614Z,19.5
2022-08-07T02:12:04.338Z,19.5
2022-08-07T02:13:02.599Z,19.5
2022-08-07T02:14:04.603Z,19.5
2022-08-07T02:15:06.841Z,19.5
2022-08-07T02:16:08.614Z,19.4
2022-08-07T02:17:10.916Z,19.4
2022-08-07T02:18:12.623Z,19.4
2022-08-07T02:20:06.066Z,19.5
2022-08-07T02:20:17.073Z,19.4
2022-08-07T02:21:18.685Z,19.4
2022-08-07T02:22:20.615Z,19.4
2022-08-07T02:23:23.861Z,19.4
2022-08-07T02:24:24.624Z,19.4
2022-08-07T02:25:47.199Z,19.5
2022-08-07T02:26:32.122Z,19.4
2022-08-07T02:27:34.520Z,19.5
2022-08-07T02:28:32.629Z,19.5
2022-08-07T02:29:36.955Z,19.5
2022-08-07T02:30:36.729Z,19.5
2022-08-07T02:31:38.654Z,19.5
2022-08-07T02:32:59.831Z,19.5
2022-08-07T02:33:57.433Z,19.5
2022-08-07T02:34:48.663Z,19.4
2022-08-07T02:36:27.656Z,19.4
2022-08-07T02:36:48.636Z,19.4
2022-08-07T02:37:50.708Z,19.4
2022-08-07T02:38:56.917Z,19.4
2022-08-07T02:40:02.624Z,19.4
2022-08-07T02:40:56.923Z,19.3
2022-08-07T02:41:58.659Z,19.3
2022-08-07T02:43:00.679Z,19.3
2022-08-07T02:44:02.650Z,19.3
2022-08-07T02:45:07.392Z,19.3
2022-08-07T02:46:06.687Z,19.3
2022-08-07T02:47:08.741Z,19.3
2022-08-07T02:48:15.400Z,19.3
2022-08-07T02:49:12.646Z,19.3
2022-08-07T02:50:16.656Z,19.3
2022-08-07T02:51:29.313Z,19.3
2022-08-07T02:52:21.374Z,19.3
2022-08-07T02:53:22.690Z,19.3
2022-08-07T02:54:25.237Z,19.3
2022-08-07T02:55:28.159Z,19.2
2022-08-07T02:56:28.662Z,19.2
2022-08-07T02:57:31.072Z,19.2
2022-08-07T02:58:33.200Z,19.1
2022-08-07T02:59:34.668Z,19.1
2022-08-07T03:00:39.058Z,19.1
2022-08-07T03:01:39.284Z,19
2022-08-07T03:02:42.011Z,19
2022-08-07T03:03:49.586Z,19
2022-08-07T03:04:44.686Z,19
2022-08-07T03:05:46.705Z,19
2022-08-07T03:06:48.679Z,19
2022-08-07T03:08:05.551Z,18.9
2022-08-07T03:08:52.705Z,19
2022-08-07T03:09:54.727Z,19
2022-08-07T03:10:57.532Z,19
2022-08-07T03:12:02.669Z,19
2022-08-07T03:13:00.685Z,19
2022-08-07T03:14:02.729Z,19
2022-08-07T03:15:07.636Z,18.9
2022-08-07T03:16:06.719Z,18.9
2022-08-07T03:17:08.947Z,18.9
2022-08-07T03:18:10.704Z,18.9
2022-08-07T03:19:13.679Z,18.9
2022-08-07T03:20:14.702Z,18.9
2022-08-07T03:21:18.881Z,18.9
2022-08-07T03:22:19.290Z,18.9
2022-08-07T03:23:20.717Z,18.9
2022-08-07T03:24:25.783Z,18.9
2022-08-07T03:25:24.724Z,18.9
2022-08-07T03:26:26.719Z,18.9
2022-08-07T03:27:30.231Z,18.9
2022-08-07T03:28:37.086Z,18.9
2022-08-07T03:29:33.667Z,18.8
2022-08-07T03:30:34.754Z,18.7
2022-08-07T03:31:42.238Z,18.7
2022-08-07T03:32:38.809Z,18.7
2022-08-07T03:33:41.126Z,18.7
2022-08-07T03:34:47.060Z,18.7
2022-08-07T03:35:50.344Z,18.8
2022-08-07T03:36:46.734Z,18.8
2022-08-07T03:37:53.410Z,18.8
2022-08-07T03:38:50.749Z,18.8
2022-08-07T03:39:58.905Z,18.9
2022-08-07T03:40:57.532Z,18.8
2022-08-07T03:41:56.748Z,18.8
2022-08-07T03:42:58.742Z,18.8
2022-08-07T03:44:03.499Z,18.8
2022-08-07T03:45:04.754Z,18.8
2022-08-07T03:46:10.309Z,18.8
2022-08-07T03:47:10.608Z,18.9
2022-08-07T03:48:11.438Z,18.9
2022-08-07T03:49:12.759Z,18.9
2022-08-07T03:50:14.748Z,18.8
2022-08-07T03:51:16.756Z,18.7
2022-08-07T03:52:22.234Z,18.7
2022-08-07T03:53:20.820Z,18.6
2022-08-07T03:54:34.079Z,18.6
2022-08-07T03:55:24.777Z,18.6
2022-08-07T03:56:32.506Z,18.6
2022-08-07T03:58:09.140Z,18.6
2022-08-07T03:58:32.832Z,18.6
2022-08-07T03:59:32.757Z,18.6
2022-08-07T04:00:35.532Z,18.6
2022-08-07T04:01:37.066Z,18.6
2022-08-07T04:02:41.070Z,18.7
2022-08-07T04:03:50.056Z,18.7
2022-08-07T04:04:42.780Z,18.7
2022-08-07T04:05:45.541Z,18.6
2022-08-07T04:06:50.757Z,18.6
2022-08-07T04:07:49.034Z,18.7
2022-08-07T04:08:50.793Z,18.7
2022-08-07T04:09:52.792Z,18.7
2022-08-07T04:12:21.021Z,18.9
2022-08-07T04:12:21.749Z,18.8
2022-08-07T04:12:58.859Z,19
2022-08-07T04:14:09.842Z,19
2022-08-07T04:15:04.913Z,19.1
2022-08-07T04:16:04.786Z,19.1
2022-08-07T04:17:16.679Z,19.2
2022-08-07T04:18:31.756Z,19.2
2022-08-07T04:19:12.856Z,19.2
2022-08-07T04:20:12.811Z,19.2
2022-08-07T04:21:14.798Z,19.2
2022-08-07T04:22:17.875Z,19.3
2022-08-07T04:23:19.248Z,19.4
2022-08-07T04:24:30.903Z,19.4
2022-08-07T04:25:23.499Z,19.5
2022-08-07T04:26:25.152Z,19.4
2022-08-07T04:27:26.947Z,19.4
2022-08-07T04:28:28.819Z,19.5
2022-08-07T04:29:40.472Z,19.5
2022-08-07T04:30:35.534Z,19.6
2022-08-07T04:31:38.369Z,19.6
2022-08-07T04:32:36.825Z,19.6
2022-08-07T04:33:38.822Z,19.6
2022-08-07T04:34:40.888Z,19.7
2022-08-07T04:35:42.816Z,19.7
2022-08-07T04:36:45.291Z,19.8
2022-08-07T04:38:01.294Z,19.7
2022-08-07T04:38:48.830Z,19.8
2022-08-07T04:39:50.909Z,19.8
2022-08-07T04:40:56.630Z,19.8
2022-08-07T04:41:54.835Z,19.8
2022-08-07T04:43:01.557Z,19.9
2022-08-07T04:44:10.747Z,19.9
2022-08-07T04:45:02.556Z,20
2022-08-07T04:46:02.873Z,20
2022-08-07T04:47:08.435Z,20.1
2022-08-07T04:48:10.751Z,20.1
2022-08-07T04:49:15.000Z,20.1
2022-08-07T04:50:11.090Z,20.1
2022-08-07T04:51:12.869Z,20.1
2022-08-07T04:52:14.881Z,20.1
2022-08-07T04:53:27.892Z,20.2
2022-08-07T04:54:18.852Z,20.2
2022-08-07T04:58:06.903Z,20.2
2022-08-07T04:58:08.030Z,20.2
2022-08-07T04:58:18.173Z,20.2
2022-08-07T04:58:47.370Z,20.2
2022-08-07T05:00:08.223Z,20.2
2022-08-07T05:00:31.842Z,20.3
2022-08-07T05:01:32.957Z,20.3
2022-08-07T05:02:34.917Z,20.4
2022-08-07T05:03:39.083Z,20.4
2022-08-07T05:04:43.863Z,20.5
2022-08-07T05:05:52.519Z,20.5
2022-08-07T05:06:43.979Z,20.6
2022-08-07T05:07:48.436Z,20.6
2022-08-07T05:09:00.411Z,20.7
2022-08-07T05:09:48.901Z,20.8
2022-08-07T05:10:51.084Z,20.8
2022-08-07T05:11:56.658Z,20.9
2022-08-07T05:12:58.561Z,21
2022-08-07T05:14:45.481Z,21
2022-08-07T05:15:03.356Z,21.1
2022-08-07T05:16:04.389Z,21.2
2022-08-07T05:17:05.840Z,21.2
2022-08-07T05:18:06.334Z,21.2
2022-08-07T05:19:06.888Z,21.3
2022-08-07T05:20:09.915Z,21.3
2022-08-07T05:21:10.889Z,21.4
2022-08-07T05:22:12.958Z,21.5
2022-08-07T05:23:15.391Z,21.6
2022-08-07T05:24:16.944Z,21.6
2022-08-07T05:25:25.373Z,21.6
2022-08-07T05:26:23.877Z,21.6
2022-08-07T05:28:01.898Z,21.6
2022-08-07T05:28:26.920Z,21.7
2022-08-07T05:29:26.912Z,21.8
2022-08-07T05:30:30.393Z,21.9
2022-08-07T05:31:34.870Z,22
2022-08-07T05:32:32.963Z,22.1
2022-08-07T05:33:35.304Z,22.3
2022-08-07T05:34:36.916Z,22.3
2022-08-07T05:35:42.003Z,22.3
2022-08-07T05:36:40.909Z,22.4
2022-08-07T05:37:42.970Z,22.4
2022-08-07T05:38:58.743Z,22.4
2022-08-07T05:40:07.201Z,22.4
2022-08-07T05:40:51.699Z,22.5
2022-08-07T05:42:00.869Z,22.5
2022-08-07T05:42:54.766Z,22.6
2022-08-07T05:44:08.831Z,22.6
2022-08-07T05:45:04.609Z,22.6
2022-08-07T05:45:59.932Z,22.6
2022-08-07T05:47:01.955Z,22.6
2022-08-07T05:48:04.187Z,22.6
2022-08-07T05:49:08.982Z,22.6
2022-08-07T05:50:07.962Z,22.6
2022-08-07T05:51:09.934Z,22.5
2022-08-07T05:52:12.040Z,22.5
2022-08-07T05:54:08.773Z,22.5
2022-08-07T05:54:31.679Z,22.5
2022-08-07T05:55:17.946Z,22.6
2022-08-07T05:56:19.966Z,22.6
2022-08-07T05:57:21.957Z,22.7
2022-08-07T05:58:35.995Z,22.7
2022-08-07T05:59:25.980Z,22.7
2022-08-07T06:00:28.010Z,22.7
2022-08-07T06:01:34.986Z,22.8
2022-08-07T06:02:32.008Z,22.7
2022-08-07T06:03:34.281Z,22.8
2022-08-07T06:04:35.961Z,22.8
2022-08-07T06:05:38.003Z,22.8
2022-08-07T06:06:45.973Z,22.9
2022-08-07T06:08:09.043Z,23
2022-08-07T06:08:44.430Z,23.1
2022-08-07T06:10:04.897Z,23.2
2022-08-07T06:10:51.490Z,23.2
2022-08-07T06:11:49.983Z,23.2
2022-08-07T06:12:52.026Z,23.3
2022-08-07T06:14:11.290Z,23.3
2022-08-07T06:14:58.758Z,23.4
2022-08-07T06:15:58.060Z,23.5
2022-08-07T06:16:59.996Z,23.6
2022-08-07T06:18:02.013Z,23.8
2022-08-07T06:19:03.988Z,23.9
2022-08-07T06:20:05.990Z,24.1
2022-08-07T06:22:12.121Z,24.7
2022-08-07T06:22:12.261Z,24.3
2022-08-07T06:23:25.306Z,25
2022-08-07T06:24:39.121Z,25.2
2022-08-07T06:25:16.002Z,25.6
2022-08-07T06:26:18.050Z,26.1
2022-08-07T06:27:22.879Z,26.7
2022-08-07T06:28:27.840Z,27.4
2022-08-07T06:29:24.006Z,28
2022-08-07T06:30:32.364Z,28.5
2022-08-07T06:31:38.673Z,28.8
2022-08-07T06:32:30.038Z,29.1
2022-08-07T06:33:32.999Z,29.4
2022-08-07T06:34:34.001Z,29.7
2022-08-07T06:35:39.296Z,29.9
2022-08-07T06:36:38.015Z,30.1
2022-08-07T06:37:43.775Z,30.2
2022-08-07T06:38:51.507Z,30.4
2022-08-07T06:40:13.891Z,30.3
2022-08-07T06:40:46.216Z,30.4
2022-08-07T06:42:01.482Z,30.7
2022-08-07T06:42:55.064Z,30.9
2022-08-07T06:43:59.332Z,31.2
2022-08-07T06:44:59.027Z,31.5
2022-08-07T06:46:02.104Z,31.8
2022-08-07T06:47:12.710Z,32.1
2022-08-07T06:48:38.046Z,32.4
2022-08-07T06:49:58.369Z,32.7
2022-08-07T06:51:11.476Z,32.7
2022-08-07T06:52:18.046Z,32.6
2022-08-07T06:54:12.396Z,32.4
2022-08-07T06:55:30.503Z,32.5
2022-08-07T06:55:30.530Z,32.6
2022-08-07T06:56:27.381Z,32.8
2022-08-07T06:57:39.542Z,32.9
2022-08-07T06:58:40.146Z,32.8
2022-08-07T07:00:10.616Z,32.9
2022-08-07T07:00:52.697Z,33.2
2022-08-07T07:01:53.086Z,33.4
2022-08-07T07:02:57.869Z,33.5
2022-08-07T07:04:05.607Z,33.5
2022-08-07T07:05:02.263Z,33.5
2022-08-07T07:06:06.133Z,33.5
2022-08-07T07:07:10.595Z,33.6
2022-08-07T07:08:09.872Z,33.6
2022-08-07T07:09:10.081Z,33.7
2022-08-07T07:10:12.065Z,33.6
2022-08-07T07:12:06.688Z,33.6
2022-08-07T07:12:21.701Z,33.7
2022-08-07T07:13:43.493Z,33.8
2022-08-07T07:14:20.187Z,33.9
2022-08-07T07:15:24.276Z,34.1
2022-08-07T07:16:27.179Z,34.2
2022-08-07T07:17:28.747Z,34.2
2022-08-07T07:18:33.059Z,33.9
2022-08-07T07:19:54.905Z,33.7
2022-08-07T07:20:32.091Z,33.7
2022-08-07T07:21:40.632Z,33.7
2022-08-07T07:24:05.108Z,33.6
2022-08-07T07:24:05.879Z,33.1
2022-08-07T07:24:40.127Z,32.8
2022-08-07T07:26:33.750Z,32.3
2022-08-07T07:26:49.551Z,32.1
2022-08-07T07:27:55.883Z,32.3
2022-08-07T07:28:48.672Z,32.5
2022-08-07T07:29:56.039Z,32.8
2022-08-07T07:30:52.171Z,33
2022-08-07T07:31:54.115Z,33.1
2022-08-07T07:32:56.148Z,33.2
2022-08-07T07:33:58.115Z,33.1
2022-08-07T07:35:00.128Z,33.2
2022-08-07T07:36:04.186Z,33.3
2022-08-07T07:37:05.317Z,33.5
2022-08-07T07:38:06.560Z,33.7
2022-08-07T07:39:08.195Z,33.7
2022-08-07T07:40:15.033Z,33.5
2022-08-07T07:41:12.142Z,33.3
2022-08-07T07:42:17.599Z,33.2
2022-08-07T07:43:18.668Z,33.2
2022-08-07T07:44:25.678Z,33.2
2022-08-07T07:45:20.343Z,33.3
2022-08-07T07:46:35.919Z,33.5
2022-08-07T07:47:24.200Z,33.6
2022-08-07T07:48:35.507Z,33.5
2022-08-07T07:50:31.668Z,33.6
2022-08-07T07:50:38.436Z,33.6
2022-08-07T07:51:32.186Z,33.1
2022-08-07T07:52:34.175Z,32.5
2022-08-07T07:53:36.197Z,31.9
2022-08-07T07:54:38.173Z,31.7
2022-08-07T07:55:45.494Z,31.8
2022-08-07T07:56:42.156Z,31.9
2022-08-07T07:57:52.671Z,32
2022-08-07T07:58:46.190Z,32.1
2022-08-07T07:59:51.870Z,32.4
2022-08-07T08:00:53.974Z,32.5
2022-08-07T08:02:01.419Z,32.8
2022-08-07T08:03:01.366Z,33
2022-08-07T08:04:06.789Z,33.1
2022-08-07T08:04:58.197Z,33.5
2022-08-07T08:06:00.222Z,33.6
2022-08-07T08:07:02.891Z,33.8
2022-08-07T08:08:04.235Z,34
2022-08-07T08:09:06.185Z,34.2
2022-08-07T08:10:08.227Z,34.4
2022-08-07T08:11:13.763Z,34.2
2022-08-07T08:12:12.177Z,34.3
2022-08-07T08:16:26.221Z,34.9
2022-08-07T08:21:00.091Z,35.1
2022-08-07T08:22:03.458Z,34.9
2022-08-07T08:23:04.049Z,34.6
2022-08-07T08:24:06.068Z,34.5
2022-08-07T08:25:19.042Z,34.4
2022-08-07T08:26:10.103Z,34.3
2022-08-07T08:27:12.071Z,34.2
2022-08-07T08:28:16.758Z,34.3
2022-08-07T08:29:16.058Z,34.4
2022-08-07T08:30:19.677Z,34.5
2022-08-07T08:31:22.721Z,34.6
2022-08-07T08:32:25.294Z,34.5
2022-08-07T08:33:24.072Z,34.3
2022-08-07T08:34:27.427Z,34.2
2022-08-07T08:35:28.597Z,34.2
2022-08-07T08:36:30.452Z,34.3
2022-08-07T08:40:57.036Z,33.9
2022-08-07T08:41:59.459Z,33.4
2022-08-07T08:43:01.091Z,33.2
2022-08-07T08:44:04.006Z,32.9
2022-08-07T08:45:06.134Z,32.6
2022-08-07T08:46:08.093Z,32.6
2022-08-07T08:47:11.341Z,32.7
2022-08-07T08:48:12.091Z,33.1
2022-08-07T08:49:14.151Z,33.2
2022-08-07T08:50:28.554Z,33.4
2022-08-07T08:51:22.335Z,33.6
2022-08-07T08:52:20.143Z,33.6
2022-08-07T08:53:26.127Z,33.6
2022-08-07T08:54:28.167Z,33.6
2022-08-07T08:55:53.061Z,33.7
2022-08-07T08:56:32.118Z,33.7
2022-08-07T08:57:34.339Z,33.5
2022-08-07T08:58:36.131Z,32.9
2022-08-07T08:59:41.930Z,32.3
2022-08-07T09:00:42.519Z,32.2
2022-08-07T09:01:44.290Z,32.3
2022-08-07T09:02:44.244Z,32.3
2022-08-07T09:03:47.809Z,32.3
2022-08-07T09:04:48.180Z,32.4
2022-08-07T09:05:50.188Z,32.8
2022-08-07T09:06:52.127Z,33.1
2022-08-07T09:07:57.512Z,33.3
2022-08-07T09:08:56.133Z,33
2022-08-07T09:09:58.133Z,32.4
2022-08-07T09:11:00.342Z,31.9
2022-08-07T09:12:19.922Z,31.7
2022-08-07T09:13:03.520Z,31.8
2022-08-07T09:14:04.670Z,32.1
2022-08-07T09:16:20.795Z,32.8
2022-08-07T09:16:20.879Z,32.6
2022-08-07T09:17:08.558Z,33
2022-08-07T09:18:13.440Z,33.2
2022-08-07T09:19:52.419Z,33.3
2022-08-07T09:20:34.624Z,33.2
2022-08-07T09:21:33.638Z,32.8
2022-08-07T09:24:27.360Z,32.6
2022-08-07T09:24:29.589Z,32.4
2022-08-07T09:24:34.460Z,32.4
2022-08-07T09:25:24.215Z,32.7
2022-08-07T09:26:25.169Z,33.1
2022-08-07T09:27:27.428Z,33.3
2022-08-07T09:30:02.852Z,33.4
2022-08-07T09:30:02.986Z,33.5
2022-08-07T09:30:33.209Z,33.5
2022-08-07T09:31:38.423Z,33.6
2022-08-07T09:32:37.270Z,33.8
2022-08-07T09:33:41.417Z,33.9
2022-08-07T09:34:41.193Z,34.1
2022-08-07T09:36:01.749Z,34.4
2022-08-07T09:36:46.778Z,34.5
2022-08-07T09:37:48.655Z,34.7
2022-08-07T09:38:50.027Z,34.8
2022-08-07T09:39:53.395Z,35
2022-08-07T09:40:50.577Z,35.2
2022-08-07T09:41:58.786Z,35.2
2022-08-07T09:42:53.253Z,35.3
2022-08-07T09:44:03.804Z,35.3
2022-08-07T09:46:28.884Z,34.9
2022-08-07T09:47:26.642Z,34.4
2022-08-07T09:47:27.075Z,33.8
2022-08-07T09:48:11.936Z,33.7
2022-08-07T09:50:00.265Z,33.7
2022-08-07T09:50:18.395Z,33.8
2022-08-07T09:52:11.135Z,33.6
2022-08-07T09:52:33.443Z,33.3
2022-08-07T09:53:23.323Z,32.8
2022-08-07T09:54:27.155Z,32.6
2022-08-07T09:56:02.330Z,32.7
2022-08-07T09:56:33.969Z,32.9
2022-08-07T09:57:36.530Z,33.1
2022-08-07T09:58:38.095Z,33.5
2022-08-07T09:59:44.398Z,33.9
2022-08-07T10:00:44.900Z,34.2
2022-08-07T10:01:50.946Z,34.6
2022-08-07T10:02:55.575Z,35
2022-08-07T10:04:04.309Z,35.3
2022-08-07T10:04:55.043Z,35.3
2022-08-07T10:05:58.974Z,35.3
2022-08-07T10:07:00.167Z,35.5
2022-08-07T10:08:03.257Z,35.6
2022-08-07T10:09:04.899Z,35.7
2022-08-07T10:10:11.842Z,35.9
2022-08-07T10:11:16.643Z,35.8
2022-08-07T10:12:18.300Z,35.7
2022-08-07T10:13:30.020Z,35.6
2022-08-07T10:14:22.757Z,35.5
2022-08-07T10:15:23.158Z,35.4
2022-08-07T10:16:26.170Z,35.5
2022-08-07T10:17:32.203Z,35.6
2022-08-07T10:18:31.660Z,35.6
2022-08-07T10:19:37.718Z,35.4
2022-08-07T10:20:37.107Z,35.3
2022-08-07T10:21:50.960Z,35.1
2022-08-07T10:22:43.172Z,34.8
2022-08-07T10:24:04.630Z,34.4
2022-08-07T10:24:50.698Z,33.9
2022-08-07T10:25:53.048Z,33.4
2022-08-07T10:26:57.095Z,33.3
2022-08-07T10:27:58.950Z,33.4
2022-08-07T10:29:01.864Z,33.5
2022-08-07T10:30:03.598Z,33.9
2022-08-07T10:31:10.939Z,34.3
2022-08-07T10:32:16.591Z,34.5
2022-08-07T10:33:12.960Z,34.2
2022-08-07T10:34:15.660Z,33.7
2022-08-07T10:35:15.007Z,33.2
2022-08-07T10:36:17.086Z,32.7
2022-08-07T10:37:18.299Z,32.5
2022-08-07T10:38:21.460Z,32.5
2022-08-07T10:39:21.758Z,32.8
2022-08-07T10:40:22.780Z,33.1
2022-08-07T10:41:46.205Z,33.4
2022-08-07T10:42:31.021Z,33.6
2022-08-07T10:43:29.925Z,33.7
2022-08-07T10:44:38.168Z,33.8
2022-08-07T10:45:44.230Z,34.2
2022-08-07T10:46:31.923Z,34.6
2022-08-07T10:47:51.718Z,35
2022-08-07T10:48:36.576Z,35.2
2022-08-07T10:49:45.431Z,35
2022-08-07T10:50:41.386Z,34.4
2022-08-07T10:51:57.454Z,33.6
2022-08-07T10:52:48.691Z,33
2022-08-07T10:53:47.339Z,32.3
2022-08-07T10:54:53.292Z,31.9
2022-08-07T10:55:50.976Z,32
2022-08-07T10:56:53.360Z,32.3
2022-08-07T10:57:56.249Z,32.6
2022-08-07T10:58:59.505Z,32.7
2022-08-07T10:59:58.766Z,32.9
2022-08-07T11:00:59.723Z,33.4
2022-08-07T11:02:02.693Z,33.8
2022-08-07T11:03:03.363Z,34.2
2022-08-07T11:04:11.142Z,34.4
2022-08-07T11:05:10.191Z,34.6
2022-08-07T11:06:10.379Z,34.6
2022-08-07T11:07:14.810Z,34.5
2022-08-07T11:08:16.391Z,34.4
2022-08-07T11:10:08.303Z,34.5
2022-08-07T11:10:17.797Z,34.7
2022-08-07T11:11:20.316Z,35
2022-08-07T11:12:31.920Z,35.2
2022-08-07T11:13:42.542Z,35.3
2022-08-07T11:14:43.076Z,35
2022-08-07T11:15:31.682Z,34.3
2022-08-07T11:16:29.875Z,33.8
2022-08-07T11:17:42.971Z,33.6
2022-08-07T11:18:30.243Z,33.7
2022-08-07T11:19:31.997Z,33.9
2022-08-07T11:20:33.405Z,33.9
2022-08-07T11:21:40.700Z,33.6
2022-08-07T11:22:44.247Z,33.3
2022-08-07T11:23:38.947Z,33.3
2022-08-07T11:24:45.464Z,33.8
2022-08-07T11:25:42.362Z,34.4
2022-08-07T11:26:48.394Z,35
2022-08-07T11:28:01.087Z,35.5
2022-08-07T11:28:51.388Z,35.8
2022-08-07T11:29:48.231Z,36.2
2022-08-07T11:30:47.835Z,36.4
2022-08-07T11:31:48.774Z,36.5
2022-08-07T11:32:49.776Z,36.5
2022-08-07T11:33:54.575Z,36.7
2022-08-07T11:34:52.434Z,36.9
2022-08-07T11:35:58.840Z,36.8
2022-08-07T11:36:56.652Z,36.4
2022-08-07T11:38:10.027Z,35.9
2022-08-07T11:38:58.822Z,35.6
2022-08-07T11:40:01.959Z,35.5
2022-08-07T11:41:02.093Z,35.5
2022-08-07T11:42:03.546Z,35.3
2022-08-07T11:43:05.421Z,34.8
2022-08-07T11:44:11.225Z,34.2
2022-08-07T11:45:09.462Z,33.7
2022-08-07T11:46:11.447Z,33.3
2022-08-07T11:47:13.421Z,32.9
2022-08-07T11:48:18.114Z,32.7
2022-08-07T11:49:28.861Z,32.7
2022-08-07T11:50:30.217Z,32.6
2022-08-07T11:51:41.048Z,32.3
2022-08-07T11:52:28.931Z,32
2022-08-07T11:53:25.380Z,32.1
2022-08-07T11:58:21.629Z,33.3
2022-08-07T12:00:09.126Z,33.3
2022-08-07T12:00:27.722Z,33.3
2022-08-07T12:01:27.475Z,33.4
2022-08-07T12:02:30.583Z,33.4
2022-08-07T12:03:42.350Z,33
2022-08-07T12:04:33.507Z,32.5
2022-08-07T12:05:41.553Z,32.2
2022-08-07T12:06:36.777Z,32.2
2022-08-07T12:07:38.850Z,32.4
2022-08-07T12:08:37.862Z,32.9
2022-08-07T12:09:38.897Z,33.3
2022-08-07T12:10:41.591Z,33.5
2022-08-07T12:11:43.354Z,33.8
2022-08-07T12:12:43.474Z,34
2022-08-07T12:13:47.663Z,34.1
2022-08-07T12:14:53.820Z,34
2022-08-07T12:16:06.362Z,34
2022-08-07T12:16:49.877Z,33.9
2022-08-07T12:17:55.914Z,33.8
2022-08-07T12:18:53.426Z,34
2022-08-07T12:19:57.040Z,34.4
2022-08-07T12:20:55.868Z,34.8
2022-08-07T12:22:38.289Z,35.2
2022-08-07T12:22:58.725Z,35.5
2022-08-07T12:24:06.552Z,35.5
2022-08-07T12:25:02.119Z,35.5
2022-08-07T12:26:06.207Z,35.5
2022-08-07T12:27:03.494Z,35.4
2022-08-07T12:28:05.876Z,35.1
2022-08-07T12:29:07.551Z,34.5
2022-08-07T12:30:09.645Z,34.1
2022-08-07T12:31:11.498Z,33.7
2022-08-07T12:32:13.509Z,33.2
2022-08-07T12:33:19.042Z,32.9
2022-08-07T12:34:15.958Z,32.9
2022-08-07T12:35:16.875Z,33
2022-08-07T12:36:17.902Z,33.4
2022-08-07T12:37:23.255Z,33.6
2022-08-07T12:38:30.688Z,33.9
2022-08-07T12:39:42.180Z,34.2
2022-08-07T12:40:45.198Z,34.4
2022-08-07T12:41:23.565Z,34.5
2022-08-07T12:42:27.402Z,34.4
2022-08-07T12:43:50.822Z,34.2
2022-08-07T12:44:26.962Z,34.4
2022-08-07T12:45:27.924Z,34.3
2022-08-07T12:46:32.240Z,34.4
2022-08-07T12:47:31.115Z,34.8
2022-08-07T12:48:41.081Z,35.1
2022-08-07T12:49:40.349Z,35.3
2022-08-07T12:50:34.532Z,35.4
2022-08-07T12:51:46.820Z,35.3
2022-08-07T12:52:35.555Z,35.3
2022-08-07T12:54:03.527Z,35.1
2022-08-07T12:54:41.241Z,34.9
2022-08-07T12:56:02.165Z,34.3
2022-08-07T12:56:43.584Z,33.6
2022-08-07T12:57:59.331Z,33
2022-08-07T12:58:53.098Z,33
2022-08-07T12:59:55.115Z,33.3
2022-08-07T13:00:49.900Z,33.8
2022-08-07T13:01:49.983Z,34.3
2022-08-07T13:02:51.627Z,34.7
2022-08-07T13:03:56.460Z,34.6
2022-08-07T13:05:01.279Z,34.7
2022-08-07T13:06:02.351Z,34.8
2022-08-07T13:07:00.713Z,34.9
2022-08-07T13:08:13.149Z,35
2022-08-07T13:09:00.574Z,34.7
2022-08-07T13:10:11.131Z,34.2
2022-08-07T13:11:03.045Z,33.9
2022-08-07T13:12:09.859Z,33.7
2022-08-07T13:13:06.580Z,33.8
2022-08-07T13:14:08.591Z,33.6
2022-08-07T13:15:09.997Z,33.5
2022-08-07T13:16:11.042Z,33.7
2022-08-07T13:17:11.969Z,34
2022-08-07T13:18:26.010Z,34.3
2022-08-07T13:19:18.280Z,34.6
2022-08-07T13:20:14.979Z,34.9
2022-08-07T13:21:35.006Z,35.2
2022-08-07T13:22:19.597Z,35.6
2022-08-07T13:24:02.326Z,35.8
2022-08-07T13:24:18.988Z,36
2022-08-07T13:25:24.419Z,36
2022-08-07T13:26:25.518Z,35.5
2022-08-07T13:27:24.612Z,34.5
2022-08-07T13:28:26.775Z,33.6
2022-08-07T13:29:28.617Z,33.1
2022-08-07T13:30:40.742Z,32.7
2022-08-07T13:31:45.965Z,32.6
2022-08-07T13:32:35.041Z,32.7
2022-08-07T13:34:32.364Z,32.9
2022-08-07T13:34:36.569Z,33.3
2022-08-07T13:36:00.143Z,33.8
2022-08-07T13:36:40.532Z,34.1
2022-08-07T13:37:41.634Z,34.4
2022-08-07T13:38:43.731Z,34.6
2022-08-07T13:39:49.924Z,34.7
2022-08-07T13:40:47.047Z,34.7
2022-08-07T13:41:48.088Z,34.8
2022-08-07T13:42:49.031Z,35
2022-08-07T13:43:52.435Z,35.3
2022-08-07T13:44:55.600Z,35.3
2022-08-07T13:46:10.378Z,35.4
2022-08-07T13:46:54.643Z,35.5
2022-08-07T13:48:06.637Z,35.5
2022-08-07T13:48:59.648Z,35.4
2022-08-07T13:50:32.217Z,35.2
2022-08-07T13:51:02.744Z,35
2022-08-07T13:52:23.339Z,34.8
2022-08-07T13:53:06.660Z,34.4
2022-08-07T13:54:08.664Z,34.1
2022-08-07T13:55:10.737Z,33.6
2022-08-07T13:56:12.671Z,33
2022-08-07T13:57:14.748Z,32.6
2022-08-07T13:58:20.505Z,32.5
2022-08-07T13:59:18.056Z,32.5
2022-08-07T14:00:25.985Z,32.7
2022-08-07T14:01:21.982Z,33.1
2022-08-07T14:02:22.130Z,33.4
2022-08-07T14:03:29.288Z,33.9
2022-08-07T14:04:29.655Z,34.3